Time;durP1;ratioP1;P1;durP2;ratioP2;P2;SDS_P1;SDS_P2;PMS_P1;PMS_P2;Temp;Humidity;BMP_temperature;BMP_pressure;BME280_temperature;BME280_humidity;BME280_pressure;Samples;Min_cycle;Max_cycle;Signal;HPM_P1;HPM_P2
2021/11/16 00:01:09;;;;;;;52.63;27.50;;;;;;;7.54;100.00;98762.34;4937393;29;20027;-76
2021/11/16 00:03:35;;;;;;;48.55;27.50;;;;;;;7.53;100.00;98757.94;4959684;29;20171;-76
2021/11/16 00:06:00;;;;;;;52.75;28.00;;;;;;;7.52;100.00;98759.03;4959493;29;20071;-83
2021/11/16 00:08:26;;;;;;;50.03;28.05;;;;;;;7.57;100.00;98754.72;4941954;29;20123;-81
2021/11/16 00:10:52;;;;;;;49.17;27.00;;;;;;;7.53;100.00;98760.69;4957174;29;20151;-75
2021/11/16 00:13:17;;;;;;;48.45;27.10;;;;;;;7.57;100.00;98755.53;4953803;29;20034;-76
2021/11/16 00:15:45;;;;;;;48.13;26.42;;;;;;;7.54;100.00;98754.16;4953788;29;20023;-76
2021/11/16 00:18:11;;;;;;;49.83;29.10;;;;;;;7.57;100.00;98749.28;4953239;29;20043;-75
2021/11/16 00:20:47;;;;;;;52.17;28.27;;;;;;;7.56;100.00;98759.34;4953402;29;20027;-75
2021/11/16 00:23:18;;;;;;;47.08;25.63;;;;;;;7.55;100.00;98755.78;4952461;29;20027;-75
2021/11/16 00:25:55;;;;;;;50.72;26.77;;;;;;;7.61;100.00;98753.13;4952933;29;20154;-77
2021/11/16 00:28:22;;;;;;;50.60;25.92;;;;;;;7.68;100.00;98753.72;4935594;29;20416;-83
2021/11/16 00:30:49;;;;;;;52.22;27.67;;;;;;;7.66;100.00;98754.00;4937646;29;20027;-76
2021/11/16 00:33:16;;;;;;;51.13;28.13;;;;;;;7.67;100.00;98749.38;4936032;29;20067;-76
2021/11/16 00:35:42;;;;;;;50.00;27.02;;;;;;;7.69;100.00;98752.66;4935136;29;20038;-76
2021/11/16 00:38:11;;;;;;;48.85;27.35;;;;;;;7.68;100.00;98753.72;4935804;29;20770;-75
2021/11/16 00:40:38;;;;;;;50.88;27.20;;;;;;;7.68;100.00;98757.28;4935785;29;20034;-75
2021/11/16 00:43:07;;;;;;;50.78;27.90;;;;;;;7.64;100.00;98750.72;4936248;29;20094;-74
2021/11/16 00:45:34;;;;;;;54.28;26.95;;;;;;;7.66;100.00;98748.56;4953631;29;20067;-75
2021/11/16 00:48:01;;;;;;;50.45;27.83;;;;;;;7.60;100.00;98756.94;4936144;29;20039;-75
2021/11/16 00:50:26;;;;;;;49.85;27.73;;;;;;;7.60;100.00;98755.03;4933603;29;20028;-75
2021/11/16 00:52:52;;;;;;;48.88;26.80;;;;;;;7.62;100.00;98760.22;4917745;29;20053;-76
2021/11/16 00:55:18;;;;;;;50.25;28.00;;;;;;;7.61;100.00;98755.84;4922667;29;20040;-83
2021/11/16 00:57:44;;;;;;;53.95;27.75;;;;;;;7.55;100.00;98749.50;4921498;29;20051;-75
2021/11/16 01:00:12;;;;;;;50.97;28.30;;;;;;;7.59;100.00;98763.44;4918089;29;20038;-76
2021/11/16 01:02:37;;;;;;;48.92;27.33;;;;;;;7.61;100.00;98751.25;4920308;29;20531;-75
2021/11/16 01:05:04;;;;;;;50.60;27.20;;;;;;;7.62;100.00;98754.75;4920344;29;20135;-75
2021/11/16 01:07:31;;;;;;;49.97;28.23;;;;;;;7.67;100.00;98752.09;4937493;29;20032;-74
2021/11/16 01:09:58;;;;;;;47.22;27.58;;;;;;;7.67;100.00;98757.56;4936960;29;20031;-75
2021/11/16 01:12:25;;;;;;;51.78;27.70;;;;;;;7.71;100.00;98759.50;4920116;29;20111;-75
2021/11/16 01:14:51;;;;;;;51.28;27.80;;;;;;;7.73;100.00;98764.69;4920432;29;20026;-76
2021/11/16 01:17:16;;;;;;;53.33;27.92;;;;;;;7.75;100.00;98760.63;4920386;29;20035;-74
2021/11/16 01:19:43;;;;;;;43.08;24.80;;;;;;;7.79;99.17;98761.75;4936796;29;20032;-75
2021/11/16 01:22:09;;;;;;;44.50;25.75;;;;;;;7.84;98.78;98771.88;4920197;29;20062;-75
2021/11/16 01:24:36;;;;;;;43.45;23.95;;;;;;;7.86;98.45;98765.09;4939986;29;20024;-74
2021/11/16 01:27:01;;;;;;;47.58;25.55;;;;;;;7.86;98.35;98764.28;4942564;29;20465;-74
2021/11/16 01:29:27;;;;;;;42.35;25.02;;;;;;;7.85;98.32;98757.19;4938515;29;20032;-75
2021/11/16 01:31:55;;;;;;;47.10;27.05;;;;;;;7.88;98.49;98764.84;4920233;29;20035;-73
2021/11/16 01:34:28;;;;;;;47.35;25.27;;;;;;;7.87;98.59;98755.00;4936966;29;20460;-74
2021/11/16 01:36:55;;;;;;;52.10;27.75;;;;;;;7.91;98.70;98756.16;4919335;29;20040;-75
2021/11/16 01:39:21;;;;;;;45.55;26.65;;;;;;;7.90;98.56;98744.44;4930423;29;20130;-76
2021/11/16 01:41:47;;;;;;;43.40;26.25;;;;;;;7.91;98.71;98743.34;4955112;29;20846;-74
2021/11/16 01:44:12;;;;;;;45.85;26.25;;;;;;;7.92;98.47;98733.28;4955782;29;20106;-76
2021/11/16 01:46:38;;;;;;;47.78;26.65;;;;;;;7.90;99.02;98738.16;4938467;29;20035;-74
2021/11/16 01:49:04;;;;;;;48.92;29.08;;;;;;;7.86;99.07;98735.13;4955251;29;20027;-74
2021/11/16 01:51:30;;;;;;;44.47;25.20;;;;;;;7.85;98.99;98732.69;4938629;29;20031;-75
2021/11/16 01:54:02;;;;;;;45.80;28.58;;;;;;;7.91;98.36;98734.34;4955840;29;20042;-74
2021/11/16 01:56:42;;;;;;;43.50;26.02;;;;;;;7.90;98.64;98736.25;4938057;29;20397;-76
2021/11/16 01:59:08;;;;;;;44.97;26.90;;;;;;;7.90;98.77;98736.25;4955600;29;20055;-75
2021/11/16 02:01:35;;;;;;;46.53;26.70;;;;;;;7.92;98.52;98736.84;4938066;29;20019;-75
2021/11/16 02:04:04;;;;;;;46.95;27.23;;;;;;;7.90;99.00;98733.53;4955449;29;20070;-76
2021/11/16 02:06:33;;;;;;;47.67;25.85;;;;;;;7.92;98.68;98736.00;4955899;29;20019;-75
2021/11/16 02:09:02;;;;;;;48.78;27.40;;;;;;;7.93;98.87;98738.47;4955713;29;20042;-75
2021/11/16 02:11:27;;;;;;;46.38;26.92;;;;;;;7.93;98.97;98730.28;4937558;29;20042;-75
2021/11/16 02:13:53;;;;;;;48.42;26.00;;;;;;;7.90;99.11;98721.81;4955287;29;20031;-75
2021/11/16 02:16:19;;;;;;;50.00;26.95;;;;;;;7.89;99.37;98726.44;4937867;29;20500;-75
2021/11/16 02:18:45;;;;;;;52.90;27.92;;;;;;;7.88;99.61;98716.63;4956372;29;20023;-74
2021/11/16 02:21:10;;;;;;;47.72;26.60;;;;;;;7.89;99.29;98721.00;4959134;29;20082;-77
2021/11/16 02:23:39;;;;;;;48.45;27.45;;;;;;;7.88;99.59;98724.81;4957774;29;20035;-75
2021/11/16 02:26:07;;;;;;;49.83;28.40;;;;;;;7.87;99.58;98714.16;4957240;29;20045;-75
2021/11/16 02:28:33;;;;;;;51.28;27.98;;;;;;;7.93;99.50;98715.84;4956495;29;20548;-75
2021/11/16 02:30:59;;;;;;;47.60;26.73;;;;;;;7.90;99.70;98710.91;4955601;29;20035;-74
2021/11/16 02:33:26;;;;;;;46.55;26.30;;;;;;;7.92;99.33;98714.22;4936680;29;20091;-75
2021/11/16 02:35:51;;;;;;;43.30;26.52;;;;;;;7.94;99.57;98709.31;4918551;29;20038;-75
2021/11/16 02:38:18;;;;;;;51.65;28.95;;;;;;;7.86;100.00;98705.16;4935832;29;20035;-76
2021/11/16 02:40:43;;;;;;;51.78;27.83;;;;;;;7.86;100.00;98707.09;4935676;29;20030;-74
2021/11/16 02:43:09;;;;;;;47.20;27.50;;;;;;;7.90;99.70;98697.31;4936199;29;20032;-76
2021/11/16 02:45:36;;;;;;;48.70;26.85;;;;;;;7.91;98.85;98701.69;4919199;29;20114;-75
2021/11/16 02:48:11;;;;;;;50.17;26.55;;;;;;;7.95;98.62;98702.81;4951294;29;20030;-75
2021/11/16 02:50:48;;;;;;;51.10;27.10;;;;;;;7.96;98.55;98691.63;4941422;29;20027;-74
2021/11/16 02:53:14;;;;;;;51.08;27.33;;;;;;;7.96;99.14;98693.53;4935684;29;20421;-75
2021/11/16 02:55:42;;;;;;;48.30;26.65;;;;;;;7.92;99.41;98682.38;4954557;29;20094;-76
2021/11/16 02:58:08;;;;;;;50.30;28.50;;;;;;;7.87;100.00;98690.47;4954344;29;20055;-75
2021/11/16 03:00:35;;;;;;;52.83;29.48;;;;;;;7.82;100.00;98685.00;4937437;29;20019;-76
2021/11/16 03:03:01;;;;;;;50.92;29.10;;;;;;;7.83;100.00;98686.63;4954381;29;20031;-76
2021/11/16 03:05:31;;;;;;;51.28;28.63;;;;;;;7.79;100.00;98687.41;4953582;29;20039;-77
2021/11/16 03:07:58;;;;;;;53.70;30.60;;;;;;;7.74;100.00;98690.06;4939661;29;20032;-80
2021/11/16 03:10:26;;;;;;;54.15;30.58;;;;;;;7.75;100.00;98686.28;4939858;29;20669;-74
2021/11/16 03:12:53;;;;;;;51.72;30.38;;;;;;;7.76;100.00;98680.59;4935252;29;20496;-75
2021/11/16 03:15:22;;;;;;;53.05;30.00;;;;;;;7.76;100.00;98687.94;4919511;29;20036;-74
2021/11/16 03:17:47;;;;;;;52.45;30.30;;;;;;;7.72;100.00;98681.34;4955167;29;20070;-75
2021/11/16 03:20:16;;;;;;;53.17;31.75;;;;;;;7.71;100.00;98682.44;4949369;29;20036;-76
2021/11/16 03:22:57;;;;;;;51.75;29.60;;;;;;;7.73;100.00;98680.28;4936023;29;20531;-76
2021/11/16 03:25:30;;;;;;;59.70;32.92;;;;;;;7.72;100.00;98681.34;4917586;29;20473;-73
2021/11/16 03:28:00;;;;;;;56.85;31.23;;;;;;;7.68;100.00;98670.16;4934713;29;20126;-75
2021/11/16 03:30:27;;;;;;;51.22;30.30;;;;;;;7.60;100.00;98672.53;4934568;29;20023;-76
2021/11/16 03:32:53;;;;;;;54.13;30.38;;;;;;;7.64;100.00;98673.66;4932432;29;20486;-74
2021/11/16 03:35:18;;;;;;;54.38;29.42;;;;;;;7.68;100.00;98669.31;4953280;29;20031;-75
2021/11/16 03:37:48;;;;;;;55.13;31.40;;;;;;;7.67;100.00;98665.81;4953365;29;20027;-77
2021/11/16 03:40:16;;;;;;;56.60;30.92;;;;;;;7.68;100.00;98670.16;4952186;29;20110;-74
2021/11/16 03:42:45;;;;;;;58.80;34.05;;;;;;;7.69;100.00;98662.81;4959962;28;20027;-79
2021/11/16 03:45:15;;;;;;;55.35;31.75;;;;;;;7.70;100.00;98670.75;4954582;28;20023;-75
2021/11/16 03:47:42;;;;;;;56.10;30.58;;;;;;;7.71;100.00;98672.34;4972676;28;20423;-76
2021/11/16 03:50:11;;;;;;;53.83;30.02;;;;;;;7.77;100.00;98667.81;4972702;28;20027;-77
2021/11/16 03:52:41;;;;;;;53.55;31.40;;;;;;;7.75;100.00;98664.50;4972630;28;20026;-77
2021/11/16 03:55:07;;;;;;;54.47;31.88;;;;;;;7.68;100.00;98658.44;4972689;28;20022;-75
2021/11/16 03:57:34;;;;;;;54.22;31.13;;;;;;;7.67;100.00;98645.94;4972088;28;20166;-74
2021/11/16 04:00:00;;;;;;;50.72;30.33;;;;;;;7.72;100.00;98645.97;4972814;28;20031;-74
2021/11/16 04:02:25;;;;;;;53.50;30.30;;;;;;;7.77;100.00;98654.19;4955848;28;20058;-76
2021/11/16 04:04:54;;;;;;;54.92;30.77;;;;;;;7.72;100.00;98649.50;4954833;28;20038;-76
2021/11/16 04:07:20;;;;;;;52.88;29.20;;;;;;;7.75;100.00;98653.59;4963854;28;20504;-75
2021/11/16 04:09:46;;;;;;;62.90;31.50;;;;;;;7.74;100.00;98647.34;4933598;29;20488;-75
2021/11/16 04:12:12;;;;;;;49.60;28.80;;;;;;;7.77;100.00;98660.44;4917986;29;20059;-76
2021/11/16 04:14:37;;;;;;;49.20;29.65;;;;;;;7.76;100.00;98644.38;4916643;29;20481;-76
2021/11/16 04:17:04;;;;;;;48.58;28.27;;;;;;;7.80;100.00;98645.50;4933324;29;20114;-75
2021/11/16 04:19:29;;;;;;;56.05;29.27;;;;;;;7.76;100.00;98647.09;4932811;29;20036;-75
2021/11/16 04:21:56;;;;;;;52.47;29.83;;;;;;;7.74;100.00;98646.50;4916340;29;20031;-76
2021/11/16 04:24:22;;;;;;;47.40;28.40;;;;;;;7.80;100.00;98645.50;4916840;29;20028;-75
2021/11/16 04:26:48;;;;;;;50.58;27.83;;;;;;;7.83;100.00;98653.16;4933694;29;20024;-75
2021/11/16 04:29:13;;;;;;;49.58;27.55;;;;;;;7.87;100.00;98651.53;4916789;29;20102;-76
2021/11/16 04:31:39;;;;;;;45.65;27.58;;;;;;;7.81;100.00;98647.13;4916998;29;20030;-75
2021/11/16 04:34:06;;;;;;;54.13;29.63;;;;;;;7.80;100.00;98645.50;4933379;29;20355;-75
2021/11/16 04:36:32;;;;;;;49.42;28.35;;;;;;;7.79;100.00;98649.28;4932626;29;20024;-76
2021/11/16 04:38:57;;;;;;;47.05;28.58;;;;;;;7.81;100.00;98649.84;4916109;29;20059;-76
2021/11/16 04:41:23;;;;;;;50.25;28.02;;;;;;;7.78;100.00;98640.28;4915986;29;20063;-76
2021/11/16 04:43:48;;;;;;;52.20;28.70;;;;;;;7.80;100.00;98650.94;4940065;28;20032;-75
2021/11/16 04:46:18;;;;;;;55.08;29.08;;;;;;;7.82;99.81;98644.16;4933329;29;20477;-75
2021/11/16 04:48:52;;;;;;;54.47;29.02;;;;;;;7.80;99.48;98651.72;4933671;29;20082;-76
2021/11/16 05:02:36;;;;;;;49.85;27.73;;;;;;;7.82;98.55;98649.59;4933467;29;20035;-76
2021/11/16 05:04:53;;;;;;;49.47;29.35;;;;;;;7.82;99.13;98654.22;4930336;29;20044;-75
2021/11/16 05:07:21;;;;;;;47.67;27.80;;;;;;;7.83;99.31;98640.31;4934168;29;20032;-75
2021/11/16 05:09:49;;;;;;;49.60;28.10;;;;;;;7.90;97.89;98646.38;4934359;29;20070;-76
2021/11/16 05:12:15;;;;;;;47.05;28.42;;;;;;;7.87;97.43;98643.34;4936732;29;20023;-76
2021/11/16 05:14:41;;;;;;;46.97;26.65;;;;;;;7.89;97.33;98647.44;4937423;29;20111;-76
2021/11/16 05:17:06;;;;;;;44.33;26.40;;;;;;;7.91;96.62;98642.59;4933526;29;20478;-75
2021/11/16 05:19:32;;;;;;;46.38;27.48;;;;;;;7.89;96.65;98646.66;4944004;29;20031;-75
2021/11/16 05:21:57;;;;;;;44.47;27.52;;;;;;;7.92;96.63;98644.22;4948798;29;20055;-77
2021/11/16 05:24:24;;;;;;;48.00;28.02;;;;;;;7.90;96.74;98634.66;4957148;29;20027;-75
2021/11/16 05:26:51;;;;;;;42.83;26.52;;;;;;;7.90;96.42;98631.94;4940091;29;20023;-82
2021/11/16 05:29:17;;;;;;;43.65;26.10;;;;;;;7.91;97.46;98636.31;4939370;29;20027;-81
2021/11/16 05:31:42;;;;;;;45.47;27.13;;;;;;;7.90;97.48;98640.94;4922979;29;20039;-79
2021/11/16 05:34:07;;;;;;;51.58;27.83;;;;;;;7.86;97.36;98644.44;4937148;29;20612;-74
2021/11/16 05:36:33;;;;;;;48.45;29.42;;;;;;;7.82;97.66;98649.59;4916215;29;20031;-75
2021/11/16 05:38:58;;;;;;;50.65;27.25;;;;;;;7.85;97.20;98645.53;4948766;29;20042;-73
2021/11/16 05:41:24;;;;;;;47.40;27.15;;;;;;;7.86;97.23;98655.34;4937421;29;20023;-74
2021/11/16 05:43:49;;;;;;;50.65;29.65;;;;;;;7.80;97.06;98646.28;4952189;29;20031;-77
2021/11/16 05:46:20;;;;;;;49.38;28.23;;;;;;;7.79;97.58;98654.72;4936247;29;20034;-75
2021/11/16 05:48:52;;;;;;;48.78;27.90;;;;;;;7.81;98.04;98660.72;4938745;29;20484;-76
2021/11/16 05:51:20;;;;;;;44.45;27.30;;;;;;;7.77;98.42;98656.91;4938362;29;20122;-74
2021/11/16 05:53:51;;;;;;;44.42;27.05;;;;;;;7.77;98.70;98656.91;4955682;29;20106;-74
2021/11/16 05:56:19;;;;;;;52.63;30.15;;;;;;;7.73;99.48;98662.06;4955195;29;20062;-78
2021/11/16 05:58:45;;;;;;;49.25;28.50;;;;;;;7.76;99.57;98668.88;4954663;29;20057;-81
2021/11/16 06:01:10;;;;;;;48.63;28.30;;;;;;;7.76;99.80;98666.16;4939087;29;20035;-74
2021/11/16 06:03:36;;;;;;;49.05;28.63;;;;;;;7.72;100.00;98663.13;4937190;29;20034;-83
2021/11/16 06:06:01;;;;;;;51.63;30.48;;;;;;;7.69;100.00;98663.63;4955514;29;20038;-78
2021/11/16 06:08:28;;;;;;;59.75;31.02;;;;;;;7.61;100.00;98660.56;4934959;29;20027;-83
2021/11/16 06:10:59;;;;;;;51.50;30.33;;;;;;;7.63;100.00;98669.28;4936581;29;20031;-82
2021/11/16 06:13:24;;;;;;;52.15;31.35;;;;;;;7.59;100.00;98660.00;4935210;29;20127;-77
2021/11/16 06:15:50;;;;;;;54.47;31.70;;;;;;;7.53;100.00;98667.28;4919140;29;20047;-75
2021/11/16 06:18:19;;;;;;;55.58;31.48;;;;;;;7.45;100.00;98657.72;4938877;29;20110;-88
2021/11/16 06:20:46;;;;;;;52.28;30.80;;;;;;;7.43;100.00;98668.03;4941796;29;20489;-85
2021/11/16 06:23:11;;;;;;;54.85;30.45;;;;;;;7.49;100.00;98671.59;4944850;29;20027;-77
2021/11/16 06:25:40;;;;;;;55.38;30.20;;;;;;;7.51;100.00;98675.75;4947026;29;20024;-79
2021/11/16 06:28:06;;;;;;;53.25;30.70;;;;;;;7.49;100.00;98672.44;4948390;29;20019;-75
2021/11/16 06:30:35;;;;;;;66.05;31.92;;;;;;;7.48;100.00;98673.53;4936027;29;20028;-75
2021/11/16 06:33:02;;;;;;;66.63;31.85;;;;;;;7.48;100.00;98678.16;4926020;29;20019;-76
2021/11/16 06:35:27;;;;;;;53.80;30.92;;;;;;;7.51;100.00;98683.91;4945509;29;20039;-75
2021/11/16 06:37:53;;;;;;;58.78;31.50;;;;;;;7.50;100.00;98695.88;4927035;29;20038;-77
2021/11/16 06:40:19;;;;;;;58.83;34.35;;;;;;;7.49;100.00;98691.50;4946971;29;20059;-87
2021/11/16 06:42:45;;;;;;;55.40;32.20;;;;;;;7.54;100.00;98696.16;4945461;29;20051;-78
2021/11/16 06:45:11;;;;;;;51.83;29.55;;;;;;;7.57;100.00;98697.56;4946186;29;20020;-76
2021/11/16 06:47:37;;;;;;;60.28;33.53;;;;;;;7.55;100.00;98695.91;4949300;29;20027;-79
2021/11/16 06:50:04;;;;;;;61.10;32.90;;;;;;;7.62;100.00;98692.97;4954770;29;20035;-74
2021/11/16 06:52:33;;;;;;;60.30;32.22;;;;;;;7.64;100.00;98701.72;4936930;29;20063;-74
2021/11/16 06:54:58;;;;;;;57.00;31.80;;;;;;;7.65;100.00;98702.53;4955644;29;20515;-74
2021/11/16 06:57:27;;;;;;;54.88;30.95;;;;;;;7.73;100.00;98711.06;4943881;29;20047;-74
2021/11/16 06:59:53;;;;;;;55.33;31.27;;;;;;;7.72;100.00;98714.03;4943445;29;20023;-78
2021/11/16 07:02:23;;;;;;;58.28;31.58;;;;;;;7.77;100.00;98714.09;4937460;29;20043;-77
2021/11/16 07:04:48;;;;;;;54.88;31.33;;;;;;;7.81;100.00;98717.91;4937508;29;20020;-78
2021/11/16 07:07:14;;;;;;;69.35;33.47;;;;;;;7.98;100.00;98726.81;4939513;29;20517;-75
2021/11/16 07:09:43;;;;;;;60.22;31.50;;;;;;;8.05;100.00;98724.66;4935595;29;20401;-74
2021/11/16 07:12:24;;;;;;;63.28;33.33;;;;;;;7.98;100.00;98713.19;4943491;29;20544;-76
2021/11/16 07:14:50;;;;;;;60.63;33.15;;;;;;;8.04;100.00;98717.59;4934825;29;20071;-75
2021/11/16 07:17:17;;;;;;;56.33;31.63;;;;;;;8.20;100.00;98722.09;4942396;29;20051;-75
2021/11/16 07:19:55;;;;;;;51.92;30.63;;;;;;;8.34;100.00;98712.38;4954555;29;20023;-75
2021/11/16 07:22:27;;;;;;;61.70;31.27;;;;;;;8.27;100.00;98709.03;4954370;29;20098;-76
2021/11/16 07:24:57;;;;;;;57.25;32.15;;;;;;;8.29;100.00;98714.25;4936781;29;20027;-77
2021/11/16 07:27:32;;;;;;;61.05;32.13;;;;;;;8.32;100.00;98719.19;4936633;29;20101;-75
2021/11/16 07:29:58;;;;;;;60.75;31.75;;;;;;;8.26;100.00;98715.59;4943044;29;20020;-75
2021/11/16 07:32:28;;;;;;;56.40;32.67;;;;;;;8.27;100.00;98711.75;4923905;29;20032;-77
2021/11/16 07:34:57;;;;;;;56.97;31.13;;;;;;;8.53;99.30;98712.78;4948474;29;20020;-81
2021/11/16 07:37:32;;;;;;;56.92;32.13;;;;;;;8.58;98.15;98723.75;4950702;29;20035;-80
2021/11/16 07:39:59;;;;;;;54.33;30.95;;;;;;;8.77;96.76;98724.91;4953678;29;20073;-75
2021/11/16 07:42:28;;;;;;;56.17;31.30;;;;;;;8.77;96.90;98721.41;4936117;29;20028;-75
2021/11/16 07:45:13;;;;;;;54.20;31.42;;;;;;;8.82;97.11;98724.97;4935826;29;20540;-77
2021/11/16 07:47:47;;;;;;;56.03;31.27;;;;;;;8.87;96.83;98719.53;4936161;29;20496;-76
2021/11/16 07:50:18;;;;;;;55.60;31.27;;;;;;;8.76;96.39;98720.56;4937442;29;20054;-76
2021/11/16 07:52:45;;;;;;;64.32;30.55;;;;;;;8.78;97.22;98736.66;4953210;29;20037;-75
2021/11/16 07:55:22;;;;;;;47.10;28.17;;;;;;;8.57;96.81;98731.09;4936132;29;20118;-74
2021/11/16 07:57:47;;;;;;;45.58;27.02;;;;;;;8.60;96.43;98721.56;4935197;29;20071;-76
2021/11/16 08:00:16;;;;;;;45.25;25.95;;;;;;;8.69;96.23;98725.44;4932263;29;20459;-74
2021/11/16 08:02:42;;;;;;;46.47;27.30;;;;;;;8.70;95.59;98720.81;4933698;29;20465;-75
2021/11/16 08:05:26;;;;;;;54.00;29.15;;;;;;;8.64;96.58;98727.31;4917975;28;20035;-77
2021/11/16 08:08:08;;;;;;;47.78;26.38;;;;;;;8.82;95.94;98724.13;4943529;29;20031;-75
2021/11/16 08:10:37;;;;;;;51.92;28.25;;;;;;;8.96;94.73;98717.09;4935735;29;20023;-75
2021/11/16 08:13:14;;;;;;;48.25;28.27;;;;;;;9.34;92.98;98716.72;4946065;29;20037;-76
2021/11/16 08:15:40;;;;;;;46.63;26.80;;;;;;;9.31;91.99;98728.16;4947433;29;20035;-76
2021/11/16 08:18:11;;;;;;;47.22;26.38;;;;;;;9.30;91.74;98737.47;4927041;29;20030;-75
2021/11/16 08:20:37;;;;;;;45.33;26.92;;;;;;;9.31;92.18;98741.00;4923171;29;20128;-75
2021/11/16 08:23:05;;;;;;;49.85;27.73;;;;;;;9.46;91.16;98733.66;4935719;29;20031;-76
2021/11/16 08:25:31;;;;;;;46.17;26.35;;;;;;;9.26;91.39;98733.63;4945427;29;20036;-76
2021/11/16 08:27:57;;;;;;;45.45;25.98;;;;;;;9.18;91.50;98725.94;4945889;29;20035;-75
2021/11/16 08:30:25;;;;;;;44.75;26.90;;;;;;;9.08;91.17;98734.09;4952478;29;20027;-77
2021/11/16 08:32:57;;;;;;;40.65;24.10;;;;;;;9.03;93.97;98734.06;4951898;29;20510;-76
2021/11/16 08:35:24;;;;;;;44.55;25.45;;;;;;;9.16;92.33;98736.31;4931641;29;20035;-75
2021/11/16 08:38:00;;;;;;;43.55;25.92;;;;;;;9.13;92.58;98734.09;4936151;29;20024;-77
2021/11/16 08:40:32;;;;;;;45.03;25.52;;;;;;;8.94;92.36;98732.94;4926183;29;20039;-76
2021/11/16 08:43:12;;;;;;;42.45;25.48;;;;;;;9.05;92.70;98734.63;4921316;29;20058;-77
2021/11/16 08:45:38;;;;;;;48.78;25.70;;;;;;;9.13;92.12;98731.38;4943409;29;20106;-76
2021/11/16 08:48:04;;;;;;;43.50;25.77;;;;;;;9.11;92.72;98731.63;4942268;29;20079;-76
2021/11/16 08:50:33;;;;;;;45.20;26.73;;;;;;;8.83;92.18;98725.78;4949837;29;20027;-77
2021/11/16 08:53:08;;;;;;;44.45;24.70;;;;;;;9.02;91.58;98724.25;4943611;29;20472;-76
2021/11/16 08:55:36;;;;;;;;;;;;;;;8.91;91.76;98726.09;4929921;29;21212;-76
2021/11/16 08:58:07;;;;;;;40.65;22.30;;;;;;;8.93;91.66;98721.19;4940155;29;20025;-77
2021/11/16 09:00:34;;;;;;;39.42;22.85;;;;;;;8.98;91.09;98710.31;4948591;29;20047;-80
2021/11/16 09:03:18;;;;;;;40.17;23.30;;;;;;;9.05;90.98;98710.88;4919351;29;20032;-76
2021/11/16 09:05:48;;;;;;;43.85;22.42;;;;;;;9.07;90.29;98705.97;4918448;29;20042;-76
2021/11/16 09:08:22;;;;;;;40.20;22.98;;;;;;;9.25;89.62;98707.41;4944218;29;20041;-75
2021/11/16 09:10:50;;;;;;;35.72;20.70;;;;;;;9.32;88.85;98707.16;4941961;29;20032;-75
2021/11/16 09:13:18;;;;;;;41.25;22.45;;;;;;;9.40;88.15;98709.34;4948414;29;20114;-75
2021/11/16 09:15:48;;;;;;;36.20;21.33;;;;;;;9.37;88.29;98715.34;4943483;29;20027;-77
2021/11/16 09:18:28;;;;;;;35.90;22.33;;;;;;;9.20;88.64;98704.66;4944263;29;20038;-74
2021/11/16 09:21:12;;;;;;;40.40;21.88;;;;;;;9.34;88.13;98704.97;4944915;28;20031;-75
2021/11/16 09:23:50;;;;;;;41.80;22.98;;;;;;;9.24;88.44;98689.38;4929221;29;20454;-74
2021/11/16 09:26:52;;;;;;;39.72;23.00;;;;;;;9.44;88.12;98700.34;4936859;29;20046;-77
2021/11/16 09:29:21;;;;;;;38.33;22.80;;;;;;;9.56;87.25;98698.19;4955523;29;20435;-74
2021/11/16 09:31:49;;;;;;;37.85;22.20;;;;;;;9.68;86.64;98706.94;4957553;29;20038;-75
2021/11/16 09:34:16;;;;;;;38.28;22.23;;;;;;;9.43;87.27;98704.16;4939509;29;20098;-77
2021/11/16 09:36:44;;;;;;;37.88;22.50;;;;;;;9.86;86.17;98696.59;4938100;29;20051;-78
2021/11/16 09:39:17;;;;;;;40.58;21.13;;;;;;;10.08;84.57;98691.69;4939076;29;20388;-75
2021/11/16 09:41:46;;;;;;;37.72;21.98;;;;;;;10.00;84.78;98693.03;4929388;29;20540;-75
2021/11/16 09:44:15;;;;;;;40.22;22.17;;;;;;;9.86;84.91;98685.69;4928982;29;20034;-77
2021/11/16 09:47:07;;;;;;;36.65;22.52;;;;;;;9.93;84.80;98681.56;4946131;29;20110;-76
2021/11/16 09:49:41;;;;;;;37.58;22.30;;;;;;;9.78;84.90;98683.47;4957034;29;20038;-75
2021/11/16 09:52:10;;;;;;;37.13;21.52;;;;;;;9.77;85.41;98682.69;4955182;29;20452;-75
2021/11/16 09:55:04;;;;;;;37.33;22.55;;;;;;;9.69;85.34;98691.38;4955609;29;20126;-74
2021/11/16 09:57:36;;;;;;;39.35;22.27;;;;;;;9.27;87.62;98671.66;4941981;29;20036;-80
2021/11/16 10:00:20;;;;;;;42.15;23.65;;;;;;;9.07;88.84;98662.31;4926721;29;20035;-77
2021/11/16 10:02:53;;;;;;;37.05;22.42;;;;;;;9.35;87.52;98660.19;4936198;29;20034;-77
2021/11/16 10:05:25;;;;;;;37.53;21.52;;;;;;;9.72;86.09;98673.63;4946462;29;20046;-76
2021/11/16 10:08:03;;;;;;;45.22;23.02;;;;;;;9.63;86.55;98666.00;4954695;29;20031;-76
2021/11/16 10:10:32;;;;;;;41.30;22.98;;;;;;;9.67;86.92;98661.63;4954022;29;20043;-75
2021/11/16 10:13:02;;;;;;;41.72;23.80;;;;;;;9.52;86.47;98668.97;4954399;29;20030;-74
2021/11/16 10:15:31;;;;;;;38.05;22.88;;;;;;;9.91;85.18;98661.06;4950893;29;20031;-75
2021/11/16 10:17:58;;;;;;;42.90;23.90;;;;;;;9.81;84.75;98655.59;4926685;29;20389;-80
2021/11/16 10:20:28;;;;;;;37.90;22.27;;;;;;;9.66;86.17;98657.25;4942496;29;20035;-79
2021/11/16 10:22:59;;;;;;;42.78;24.15;;;;;;;9.57;85.81;98653.41;4936227;29;20024;-80
2021/11/16 10:25:28;;;;;;;39.22;23.48;;;;;;;9.54;86.40;98651.22;4936587;29;20028;-82
2021/11/16 10:27:58;;;;;;;34.95;21.33;;;;;;;9.78;85.53;98645.22;4918489;29;20123;-76
2021/11/16 10:30:28;;;;;;;40.38;21.75;;;;;;;9.48;86.52;98643.31;4918059;29;20028;-75
2021/11/16 10:33:07;;;;;;;37.13;22.60;;;;;;;9.44;87.34;98640.28;4942847;28;20030;-76
2021/11/16 10:35:33;;;;;;;40.78;24.33;;;;;;;9.23;88.51;98638.63;4943959;29;20034;-74
2021/11/16 10:38:04;;;;;;;38.33;23.25;;;;;;;9.16;88.56;98643.50;4951650;29;20039;-74
2021/11/16 10:40:31;;;;;;;40.75;23.10;;;;;;;9.37;87.95;98642.44;4954725;29;20163;-74
2021/11/16 10:43:00;;;;;;;38.13;23.10;;;;;;;9.51;87.17;98643.59;4954232;29;20031;-75
2021/11/16 10:45:28;;;;;;;36.45;22.15;;;;;;;9.62;86.53;98637.03;4955103;29;20027;-75
2021/11/16 10:48:02;;;;;;;35.03;22.30;;;;;;;9.61;85.65;98640.88;4956428;29;20051;-75
2021/11/16 10:50:30;;;;;;;34.80;21.38;;;;;;;9.60;85.52;98639.22;4960262;29;20031;-77
2021/11/16 10:53:01;;;;;;;39.45;21.83;;;;;;;9.60;85.23;98633.75;4961665;29;20027;-74
2021/11/16 10:55:39;;;;;;;40.90;22.05;;;;;;;9.04;87.26;98629.28;4959165;29;20484;-82
2021/11/16 10:58:06;;;;;;;34.95;20.50;;;;;;;9.10;87.96;98631.75;4960545;29;20118;-81
2021/11/16 11:00:46;;;;;;;38.55;22.05;;;;;;;9.05;89.26;98636.41;4962329;29;20023;-80
2021/11/16 11:03:22;;;;;;;37.08;23.33;;;;;;;9.09;88.86;98634.75;4939548;29;20095;-79
2021/11/16 11:05:58;;;;;;;38.55;22.23;;;;;;;9.04;88.66;98624.66;4950809;29;20023;-79
2021/11/16 11:08:45;;;;;;;38.83;22.60;;;;;;;8.96;89.51;98616.97;4943227;29;20054;-78
2021/11/16 11:11:19;;;;;;;35.65;21.08;;;;;;;9.25;87.46;98622.78;4940479;29;20038;-75
2021/11/16 11:13:47;;;;;;;41.08;21.67;;;;;;;9.23;87.90;98622.25;4949357;29;20032;-76
2021/11/16 11:16:17;;;;;;;38.20;23.15;;;;;;;9.34;87.47;98618.41;4955255;29;20118;-75
2021/11/16 11:18:47;;;;;;;37.13;22.92;;;;;;;9.15;88.61;98612.66;4954593;29;20171;-75
2021/11/16 11:21:58;;;;;;;54.30;31.65;;;;;;;9.05;93.97;98620.03;4954614;29;20476;-75
2021/11/16 11:24:29;;;;;;;68.05;36.25;;;;;;;8.58;98.57;98620.13;4927208;29;20078;-78
2021/11/16 11:27:00;;;;;;;66.38;36.97;;;;;;;8.41;100.00;98617.59;4954439;29;20048;-75
2021/11/16 11:29:40;;;;;;;70.25;37.22;;;;;;;8.28;100.00;98622.69;4938547;29;20036;-75
2021/11/16 11:32:14;;;;;;;68.10;37.22;;;;;;;8.12;100.00;98613.56;4955336;29;20055;-75
2021/11/16 11:34:42;;;;;;;73.25;38.38;;;;;;;7.88;100.00;98621.31;4954981;29;20024;-78
2021/11/16 11:37:17;;;;;;;76.97;38.47;;;;;;;7.99;100.00;98619.47;4954751;29;20035;-76
2021/11/16 11:39:54;;;;;;;67.70;36.72;;;;;;;7.76;100.00;98617.13;4955067;29;20032;-75
2021/11/16 11:42:20;;;;;;;72.53;37.97;;;;;;;7.72;100.00;98616.00;4954809;29;20027;-74